sensor_id;sensor_type;location;lat;lon;timestamp;P1;durP1;ratioP1;P2;durP2;ratioP2
6015;SDS011;3036;49.960;8.454;2023-12-07T00:00:22;6.80;;;4.90;;
6015;SDS011;3036;49.960;8.454;2023-12-07T00:02:49;5.47;;;4.77;;
6015;SDS011;3036;49.960;8.454;2023-12-07T00:05:16;7.00;;;5.10;;
6015;SDS011;3036;49.960;8.454;2023-12-07T00:07:43;4.90;;;4.50;;
6015;SDS011;3036;49.960;8.454;2023-12-07T00:10:11;6.77;;;4.47;;
6015;SDS011;3036;49.960;8.454;2023-12-07T00:12:40;7.93;;;4.73;;
6015;SDS011;3036;49.960;8.454;2023-12-07T00:15:07;6.10;;;4.80;;
6015;SDS011;3036;49.960;8.454;2023-12-07T00:17:34;5.73;;;4.70;;
6015;SDS011;3036;49.960;8.454;2023-12-07T00:20:01;5.40;;;4.47;;
6015;SDS011;3036;49.960;8.454;2023-12-07T00:22:30;6.30;;;4.20;;
6015;SDS011;3036;49.960;8.454;2023-12-07T00:24:57;7.67;;;4.37;;
6015;SDS011;3036;49.960;8.454;2023-12-07T00:27:25;6.07;;;4.23;;
6015;SDS011;3036;49.960;8.454;2023-12-07T00:29:52;8.93;;;4.87;;
6015;SDS011;3036;49.960;8.454;2023-12-07T00:32:19;8.47;;;4.90;;
6015;SDS011;3036;49.960;8.454;2023-12-07T00:34:46;5.13;;;4.17;;
6015;SDS011;3036;49.960;8.454;2023-12-07T00:37:14;6.27;;;4.53;;
6015;SDS011;3036;49.960;8.454;2023-12-07T00:39:41;5.50;;;4.50;;
6015;SDS011;3036;49.960;8.454;2023-12-07T00:42:08;6.33;;;4.23;;
6015;SDS011;3036;49.960;8.454;2023-12-07T00:44:39;8.30;;;4.73;;
6015;SDS011;3036;49.960;8.454;2023-12-07T00:47:07;6.53;;;4.80;;
6015;SDS011;3036;49.960;8.454;2023-12-07T00:49:37;5.77;;;4.40;;
6015;SDS011;3036;49.960;8.454;2023-12-07T00:52:04;8.40;;;4.77;;
6015;SDS011;3036;49.960;8.454;2023-12-07T00:54:32;8.80;;;4.90;;
6015;SDS011;3036;49.960;8.454;2023-12-07T00:56:59;5.90;;;4.80;;
6015;SDS011;3036;49.960;8.454;2023-12-07T00:59:26;8.97;;;5.47;;
6015;SDS011;3036;49.960;8.454;2023-12-07T01:02:00;10.60;;;5.80;;
6015;SDS011;3036;49.960;8.454;2023-12-07T01:04:27;7.07;;;5.57;;
6015;SDS011;3036;49.960;8.454;2023-12-07T01:06:54;8.10;;;6.00;;
6015;SDS011;3036;49.960;8.454;2023-12-07T01:09:21;10.67;;;6.03;;
6015;SDS011;3036;49.960;8.454;2023-12-07T01:11:48;9.33;;;5.63;;
6015;SDS011;3036;49.960;8.454;2023-12-07T01:14:15;8.53;;;5.77;;
6015;SDS011;3036;49.960;8.454;2023-12-07T01:16:43;8.77;;;6.07;;
6015;SDS011;3036;49.960;8.454;2023-12-07T01:19:11;8.07;;;6.13;;
6015;SDS011;3036;49.960;8.454;2023-12-07T01:21:39;11.20;;;5.87;;
6015;SDS011;3036;49.960;8.454;2023-12-07T01:24:06;8.77;;;5.93;;
6015;SDS011;3036;49.960;8.454;2023-12-07T01:26:33;7.20;;;5.10;;
6015;SDS011;3036;49.960;8.454;2023-12-07T01:29:00;12.70;;;5.67;;
6015;SDS011;3036;49.960;8.454;2023-12-07T01:31:28;9.23;;;6.30;;
6015;SDS011;3036;49.960;8.454;2023-12-07T01:33:55;13.93;;;6.43;;
6015;SDS011;3036;49.960;8.454;2023-12-07T01:36:23;8.10;;;6.23;;
6015;SDS011;3036;49.960;8.454;2023-12-07T01:38:50;11.63;;;7.47;;
6015;SDS011;3036;49.960;8.454;2023-12-07T01:41:17;16.80;;;8.27;;
6015;SDS011;3036;49.960;8.454;2023-12-07T01:43:45;9.20;;;6.00;;
6015;SDS011;3036;49.960;8.454;2023-12-07T01:46:12;11.33;;;7.27;;
6015;SDS011;3036;49.960;8.454;2023-12-07T01:48:39;11.37;;;6.83;;
6015;SDS011;3036;49.960;8.454;2023-12-07T01:51:07;10.70;;;6.67;;
6015;SDS011;3036;49.960;8.454;2023-12-07T01:53:35;12.10;;;6.60;;
6015;SDS011;3036;49.960;8.454;2023-12-07T01:56:05;8.13;;;5.53;;
6015;SDS011;3036;49.960;8.454;2023-12-07T01:58:32;8.77;;;5.83;;
6015;SDS011;3036;49.960;8.454;2023-12-07T02:01:00;8.93;;;6.00;;
6015;SDS011;3036;49.960;8.454;2023-12-07T02:03:28;8.83;;;5.30;;
6015;SDS011;3036;49.960;8.454;2023-12-07T02:05:55;11.70;;;5.73;;
6015;SDS011;3036;49.960;8.454;2023-12-07T02:08:22;7.20;;;5.00;;
6015;SDS011;3036;49.960;8.454;2023-12-07T02:10:51;7.07;;;4.67;;
6015;SDS011;3036;49.960;8.454;2023-12-07T02:13:18;7.63;;;5.60;;
6015;SDS011;3036;49.960;8.454;2023-12-07T02:15:45;6.07;;;4.90;;
6015;SDS011;3036;49.960;8.454;2023-12-07T02:18:14;5.90;;;5.17;;
6015;SDS011;3036;49.960;8.454;2023-12-07T02:20:42;9.40;;;5.13;;
6015;SDS011;3036;49.960;8.454;2023-12-07T02:23:13;8.23;;;5.50;;
6015;SDS011;3036;49.960;8.454;2023-12-07T02:25:44;7.90;;;5.33;;
6015;SDS011;3036;49.960;8.454;2023-12-07T02:28:13;6.80;;;4.93;;
6015;SDS011;3036;49.960;8.454;2023-12-07T02:30:40;6.40;;;4.80;;
6015;SDS011;3036;49.960;8.454;2023-12-07T02:33:07;6.93;;;5.13;;
6015;SDS011;3036;49.960;8.454;2023-12-07T02:35:35;7.77;;;4.73;;
6015;SDS011;3036;49.960;8.454;2023-12-07T02:38:02;8.03;;;5.20;;
6015;SDS011;3036;49.960;8.454;2023-12-07T02:40:29;10.77;;;4.60;;
6015;SDS011;3036;49.960;8.454;2023-12-07T02:42:57;8.93;;;4.60;;
6015;SDS011;3036;49.960;8.454;2023-12-07T02:45:26;8.67;;;5.40;;
6015;SDS011;3036;49.960;8.454;2023-12-07T02:47:53;6.70;;;4.90;;
6015;SDS011;3036;49.960;8.454;2023-12-07T02:50:20;9.77;;;5.43;;
6015;SDS011;3036;49.960;8.454;2023-12-07T02:52:47;6.97;;;5.40;;
6015;SDS011;3036;49.960;8.454;2023-12-07T02:55:14;9.80;;;5.53;;
6015;SDS011;3036;49.960;8.454;2023-12-07T02:57:42;8.13;;;5.27;;
6015;SDS011;3036;49.960;8.454;2023-12-07T03:00:09;6.30;;;4.63;;
6015;SDS011;3036;49.960;8.454;2023-12-07T03:02:39;6.93;;;5.40;;
6015;SDS011;3036;49.960;8.454;2023-12-07T03:05:06;8.67;;;5.60;;
6015;SDS011;3036;49.960;8.454;2023-12-07T03:07:34;7.70;;;5.57;;
6015;SDS011;3036;49.960;8.454;2023-12-07T03:10:01;5.87;;;4.83;;
6015;SDS011;3036;49.960;8.454;2023-12-07T03:12:29;7.37;;;5.13;;
6015;SDS011;3036;49.960;8.454;2023-12-07T03:14:56;6.87;;;4.77;;
6015;SDS011;3036;49.960;8.454;2023-12-07T03:17:23;7.90;;;4.97;;
6015;SDS011;3036;49.960;8.454;2023-12-07T03:19:51;9.37;;;5.80;;
6015;SDS011;3036;49.960;8.454;2023-12-07T03:22:18;5.40;;;4.67;;
6015;SDS011;3036;49.960;8.454;2023-12-07T03:24:46;5.53;;;4.97;;
6015;SDS011;3036;49.960;8.454;2023-12-07T03:27:13;6.73;;;4.80;;
6015;SDS011;3036;49.960;8.454;2023-12-07T03:29:41;7.27;;;5.30;;
6015;SDS011;3036;49.960;8.454;2023-12-07T03:32:08;8.97;;;5.53;;
6015;SDS011;3036;49.960;8.454;2023-12-07T03:34:35;7.60;;;5.30;;
6015;SDS011;3036;49.960;8.454;2023-12-07T03:37:03;8.27;;;5.43;;
6015;SDS011;3036;49.960;8.454;2023-12-07T03:39:32;7.23;;;5.27;;
6015;SDS011;3036;49.960;8.454;2023-12-07T03:41:59;6.33;;;4.87;;
6015;SDS011;3036;49.960;8.454;2023-12-07T03:44:26;10.27;;;5.47;;
6015;SDS011;3036;49.960;8.454;2023-12-07T03:46:53;8.57;;;4.53;;
6015;SDS011;3036;49.960;8.454;2023-12-07T03:49:20;10.63;;;5.13;;
6015;SDS011;3036;49.960;8.454;2023-12-07T03:51:47;8.07;;;4.97;;
6015;SDS011;3036;49.960;8.454;2023-12-07T03:54:15;10.43;;;5.63;;
6015;SDS011;3036;49.960;8.454;2023-12-07T03:56:42;8.93;;;5.53;;
6015;SDS011;3036;49.960;8.454;2023-12-07T03:59:09;9.50;;;5.37;;
6015;SDS011;3036;49.960;8.454;2023-12-07T04:01:36;9.30;;;5.87;;
6015;SDS011;3036;49.960;8.454;2023-12-07T04:04:03;10.30;;;6.30;;
6015;SDS011;3036;49.960;8.454;2023-12-07T04:06:30;11.20;;;5.97;;
6015;SDS011;3036;49.960;8.454;2023-12-07T04:08:57;10.27;;;5.83;;
6015;SDS011;3036;49.960;8.454;2023-12-07T04:11:26;9.37;;;5.70;;
6015;SDS011;3036;49.960;8.454;2023-12-07T04:13:53;7.07;;;5.27;;
6015;SDS011;3036;49.960;8.454;2023-12-07T04:16:20;11.17;;;5.93;;
6015;SDS011;3036;49.960;8.454;2023-12-07T04:18:47;9.70;;;5.50;;
6015;SDS011;3036;49.960;8.454;2023-12-07T04:21:14;10.50;;;5.80;;
6015;SDS011;3036;49.960;8.454;2023-12-07T04:23:41;9.77;;;5.53;;
6015;SDS011;3036;49.960;8.454;2023-12-07T04:26:08;7.50;;;5.43;;
6015;SDS011;3036;49.960;8.454;2023-12-07T04:28:37;7.80;;;5.63;;
6015;SDS011;3036;49.960;8.454;2023-12-07T04:31:04;7.10;;;5.33;;
6015;SDS011;3036;49.960;8.454;2023-12-07T04:33:31;6.10;;;5.13;;
6015;SDS011;3036;49.960;8.454;2023-12-07T04:35:58;9.57;;;5.53;;
6015;SDS011;3036;49.960;8.454;2023-12-07T04:38:25;9.87;;;6.23;;
6015;SDS011;3036;49.960;8.454;2023-12-07T04:40:52;13.10;;;6.33;;
6015;SDS011;3036;49.960;8.454;2023-12-07T04:43:19;12.07;;;6.70;;
6015;SDS011;3036;49.960;8.454;2023-12-07T04:45:47;11.23;;;5.87;;
6015;SDS011;3036;49.960;8.454;2023-12-07T04:48:15;7.80;;;5.50;;
6015;SDS011;3036;49.960;8.454;2023-12-07T04:50:42;8.37;;;5.87;;
6015;SDS011;3036;49.960;8.454;2023-12-07T04:53:09;6.93;;;5.63;;
6015;SDS011;3036;49.960;8.454;2023-12-07T04:55:36;7.10;;;5.17;;
6015;SDS011;3036;49.960;8.454;2023-12-07T04:58:03;8.90;;;5.30;;
6015;SDS011;3036;49.960;8.454;2023-12-07T05:00:30;8.90;;;5.67;;
6015;SDS011;3036;49.960;8.454;2023-12-07T05:02:58;9.93;;;5.80;;
6015;SDS011;3036;49.960;8.454;2023-12-07T05:05:25;10.43;;;5.27;;
6015;SDS011;3036;49.960;8.454;2023-12-07T05:07:52;10.40;;;5.27;;
6015;SDS011;3036;49.960;8.454;2023-12-07T05:10:19;9.20;;;5.80;;
6015;SDS011;3036;49.960;8.454;2023-12-07T05:12:46;12.57;;;5.57;;
6015;SDS011;3036;49.960;8.454;2023-12-07T05:15:13;6.50;;;4.63;;
6015;SDS011;3036;49.960;8.454;2023-12-07T05:17:40;9.70;;;5.10;;
6015;SDS011;3036;49.960;8.454;2023-12-07T05:20:09;7.83;;;5.20;;
6015;SDS011;3036;49.960;8.454;2023-12-07T05:22:37;8.03;;;4.97;;
6015;SDS011;3036;49.960;8.454;2023-12-07T05:25:05;11.27;;;6.30;;
6015;SDS011;3036;49.960;8.454;2023-12-07T05:27:32;9.87;;;5.30;;
6015;SDS011;3036;49.960;8.454;2023-12-07T05:29:59;12.77;;;5.67;;
6015;SDS011;3036;49.960;8.454;2023-12-07T05:32:26;6.53;;;4.70;;
6015;SDS011;3036;49.960;8.454;2023-12-07T05:34:53;10.03;;;5.50;;
6015;SDS011;3036;49.960;8.454;2023-12-07T05:37:22;7.03;;;5.23;;
6015;SDS011;3036;49.960;8.454;2023-12-07T05:39:49;7.37;;;5.23;;
6015;SDS011;3036;49.960;8.454;2023-12-07T05:42:16;13.47;;;5.80;;
6015;SDS011;3036;49.960;8.454;2023-12-07T05:44:43;7.30;;;5.27;;
6015;SDS011;3036;49.960;8.454;2023-12-07T05:47:10;9.67;;;6.43;;
6015;SDS011;3036;49.960;8.454;2023-12-07T05:49:38;12.07;;;6.77;;
6015;SDS011;3036;49.960;8.454;2023-12-07T05:52:05;7.23;;;5.17;;
6015;SDS011;3036;49.960;8.454;2023-12-07T05:54:33;10.63;;;6.80;;
6015;SDS011;3036;49.960;8.454;2023-12-07T05:57:00;9.83;;;5.90;;
6015;SDS011;3036;49.960;8.454;2023-12-07T05:59:28;9.20;;;6.67;;
6015;SDS011;3036;49.960;8.454;2023-12-07T06:01:55;10.53;;;5.60;;
6015;SDS011;3036;49.960;8.454;2023-12-07T06:04:22;12.50;;;6.80;;
6015;SDS011;3036;49.960;8.454;2023-12-07T06:06:49;12.90;;;6.37;;
6015;SDS011;3036;49.960;8.454;2023-12-07T06:09:16;13.27;;;7.87;;
6015;SDS011;3036;49.960;8.454;2023-12-07T06:11:44;11.60;;;7.30;;
6015;SDS011;3036;49.960;8.454;2023-12-07T06:14:11;14.80;;;7.50;;
6015;SDS011;3036;49.960;8.454;2023-12-07T06:16:38;12.70;;;8.07;;
6015;SDS011;3036;49.960;8.454;2023-12-07T06:19:05;19.07;;;8.20;;
6015;SDS011;3036;49.960;8.454;2023-12-07T06:21:32;14.53;;;7.93;;
6015;SDS011;3036;49.960;8.454;2023-12-07T06:23:59;14.57;;;8.97;;
6015;SDS011;3036;49.960;8.454;2023-12-07T06:26:26;16.77;;;9.07;;
6015;SDS011;3036;49.960;8.454;2023-12-07T06:28:55;18.97;;;9.83;;
6015;SDS011;3036;49.960;8.454;2023-12-07T06:31:22;13.10;;;7.87;;
6015;SDS011;3036;49.960;8.454;2023-12-07T06:33:49;12.60;;;6.80;;
6015;SDS011;3036;49.960;8.454;2023-12-07T06:36:20;12.30;;;7.40;;
6015;SDS011;3036;49.960;8.454;2023-12-07T06:38:47;12.70;;;7.13;;
6015;SDS011;3036;49.960;8.454;2023-12-07T06:41:15;9.33;;;7.30;;
6015;SDS011;3036;49.960;8.454;2023-12-07T06:43:42;9.43;;;6.57;;
6015;SDS011;3036;49.960;8.454;2023-12-07T06:46:11;13.07;;;6.70;;
6015;SDS011;3036;49.960;8.454;2023-12-07T06:48:39;12.40;;;6.57;;
6015;SDS011;3036;49.960;8.454;2023-12-07T06:51:06;10.17;;;7.07;;
6015;SDS011;3036;49.960;8.454;2023-12-07T06:53:33;11.03;;;7.47;;
6015;SDS011;3036;49.960;8.454;2023-12-07T06:56:00;11.90;;;7.40;;
6015;SDS011;3036;49.960;8.454;2023-12-07T06:58:27;11.50;;;7.10;;
6015;SDS011;3036;49.960;8.454;2023-12-07T07:00:54;11.27;;;7.37;;
6015;SDS011;3036;49.960;8.454;2023-12-07T07:03:29;14.40;;;7.13;;
6015;SDS011;3036;49.960;8.454;2023-12-07T07:05:56;11.27;;;7.23;;
6015;SDS011;3036;49.960;8.454;2023-12-07T07:08:24;11.23;;;7.50;;
6015;SDS011;3036;49.960;8.454;2023-12-07T07:10:51;11.07;;;7.30;;
6015;SDS011;3036;49.960;8.454;2023-12-07T07:13:18;12.07;;;6.93;;
6015;SDS011;3036;49.960;8.454;2023-12-07T07:15:45;10.70;;;7.53;;
6015;SDS011;3036;49.960;8.454;2023-12-07T07:18:13;11.70;;;7.90;;
6015;SDS011;3036;49.960;8.454;2023-12-07T07:20:41;14.73;;;7.97;;
6015;SDS011;3036;49.960;8.454;2023-12-07T07:23:09;10.97;;;7.97;;
6015;SDS011;3036;49.960;8.454;2023-12-07T07:25:37;14.37;;;8.43;;
6015;SDS011;3036;49.960;8.454;2023-12-07T07:28:04;11.77;;;7.83;;
6015;SDS011;3036;49.960;8.454;2023-12-07T07:30:32;12.53;;;8.53;;
6015;SDS011;3036;49.960;8.454;2023-12-07T07:32:59;14.20;;;8.03;;
6015;SDS011;3036;49.960;8.454;2023-12-07T07:35:27;13.90;;;8.00;;
6015;SDS011;3036;49.960;8.454;2023-12-07T07:37:55;12.60;;;8.13;;
6015;SDS011;3036;49.960;8.454;2023-12-07T07:40:22;11.87;;;7.77;;
6015;SDS011;3036;49.960;8.454;2023-12-07T07:42:49;12.27;;;8.27;;
6015;SDS011;3036;49.960;8.454;2023-12-07T07:45:17;17.20;;;8.83;;
6015;SDS011;3036;49.960;8.454;2023-12-07T07:47:44;14.73;;;8.33;;
6015;SDS011;3036;49.960;8.454;2023-12-07T07:50:11;16.03;;;8.13;;
6015;SDS011;3036;49.960;8.454;2023-12-07T07:52:38;12.97;;;7.93;;
6015;SDS011;3036;49.960;8.454;2023-12-07T07:55:07;15.10;;;8.20;;
6015;SDS011;3036;49.960;8.454;2023-12-07T07:57:34;12.60;;;7.33;;
6015;SDS011;3036;49.960;8.454;2023-12-07T08:00:01;11.83;;;7.40;;
6015;SDS011;3036;49.960;8.454;2023-12-07T08:02:30;11.50;;;7.63;;
6015;SDS011;3036;49.960;8.454;2023-12-07T08:04:57;12.47;;;7.70;;
6015;SDS011;3036;49.960;8.454;2023-12-07T08:07:24;11.67;;;7.10;;
6015;SDS011;3036;49.960;8.454;2023-12-07T08:09:51;11.67;;;7.57;;
6015;SDS011;3036;49.960;8.454;2023-12-07T08:12:20;11.27;;;6.47;;
6015;SDS011;3036;49.960;8.454;2023-12-07T08:14:48;8.83;;;5.93;;
6015;SDS011;3036;49.960;8.454;2023-12-07T08:17:15;10.70;;;6.40;;
6015;SDS011;3036;49.960;8.454;2023-12-07T08:19:44;9.40;;;6.10;;
6015;SDS011;3036;49.960;8.454;2023-12-07T08:22:11;12.37;;;6.23;;
6015;SDS011;3036;49.960;8.454;2023-12-07T08:24:38;9.60;;;6.77;;
6015;SDS011;3036;49.960;8.454;2023-12-07T08:27:05;10.93;;;7.27;;
6015;SDS011;3036;49.960;8.454;2023-12-07T08:29:34;15.97;;;8.47;;
6015;SDS011;3036;49.960;8.454;2023-12-07T08:32:01;14.73;;;8.37;;
6015;SDS011;3036;49.960;8.454;2023-12-07T08:34:28;15.70;;;8.90;;
6015;SDS011;3036;49.960;8.454;2023-12-07T08:36:56;14.63;;;8.80;;
6015;SDS011;3036;49.960;8.454;2023-12-07T08:39:23;15.23;;;9.47;;
6015;SDS011;3036;49.960;8.454;2023-12-07T08:41:51;22.37;;;9.90;;
6015;SDS011;3036;49.960;8.454;2023-12-07T08:44:18;26.07;;;12.17;;
6015;SDS011;3036;49.960;8.454;2023-12-07T08:46:46;27.00;;;12.97;;
6015;SDS011;3036;49.960;8.454;2023-12-07T08:49:13;26.03;;;13.37;;
6015;SDS011;3036;49.960;8.454;2023-12-07T08:51:41;25.73;;;13.33;;
6015;SDS011;3036;49.960;8.454;2023-12-07T08:54:08;22.00;;;12.50;;
6015;SDS011;3036;49.960;8.454;2023-12-07T08:56:35;19.33;;;10.93;;
6015;SDS011;3036;49.960;8.454;2023-12-07T08:59:02;18.90;;;9.90;;
6015;SDS011;3036;49.960;8.454;2023-12-07T09:01:29;16.20;;;9.40;;
6015;SDS011;3036;49.960;8.454;2023-12-07T09:03:59;19.80;;;9.50;;
6015;SDS011;3036;49.960;8.454;2023-12-07T09:06:27;14.40;;;8.87;;
6015;SDS011;3036;49.960;8.454;2023-12-07T09:08:54;16.17;;;8.20;;
6015;SDS011;3036;49.960;8.454;2023-12-07T09:11:21;15.23;;;8.73;;
6015;SDS011;3036;49.960;8.454;2023-12-07T09:13:48;15.00;;;8.27;;
6015;SDS011;3036;49.960;8.454;2023-12-07T09:16:15;18.80;;;8.63;;
6015;SDS011;3036;49.960;8.454;2023-12-07T09:18:42;20.60;;;8.77;;
6015;SDS011;3036;49.960;8.454;2023-12-07T09:21:11;16.70;;;8.20;;
6015;SDS011;3036;49.960;8.454;2023-12-07T09:23:38;14.10;;;7.97;;
6015;SDS011;3036;49.960;8.454;2023-12-07T09:26:05;13.87;;;7.67;;
6015;SDS011;3036;49.960;8.454;2023-12-07T09:28:32;16.53;;;7.77;;
6015;SDS011;3036;49.960;8.454;2023-12-07T09:31:00;13.63;;;8.13;;
6015;SDS011;3036;49.960;8.454;2023-12-07T09:33:27;14.20;;;7.83;;
6015;SDS011;3036;49.960;8.454;2023-12-07T09:35:54;13.07;;;7.60;;
6015;SDS011;3036;49.960;8.454;2023-12-07T09:38:22;18.43;;;7.30;;
6015;SDS011;3036;49.960;8.454;2023-12-07T09:40:52;11.47;;;6.97;;
6015;SDS011;3036;49.960;8.454;2023-12-07T09:43:19;21.37;;;8.83;;
6015;SDS011;3036;49.960;8.454;2023-12-07T09:45:46;20.93;;;8.87;;
6015;SDS011;3036;49.960;8.454;2023-12-07T09:48:15;16.87;;;8.33;;
6015;SDS011;3036;49.960;8.454;2023-12-07T09:50:43;26.00;;;9.47;;
6015;SDS011;3036;49.960;8.454;2023-12-07T09:53:10;20.67;;;9.40;;
6015;SDS011;3036;49.960;8.454;2023-12-07T09:55:38;15.60;;;8.13;;
6015;SDS011;3036;49.960;8.454;2023-12-07T09:58:06;32.63;;;8.73;;
6015;SDS011;3036;49.960;8.454;2023-12-07T10:00:33;15.90;;;8.90;;
6015;SDS011;3036;49.960;8.454;2023-12-07T10:03:00;16.93;;;8.80;;
6015;SDS011;3036;49.960;8.454;2023-12-07T10:05:27;38.37;;;9.63;;
6015;SDS011;3036;49.960;8.454;2023-12-07T10:07:54;19.73;;;9.53;;
6015;SDS011;3036;49.960;8.454;2023-12-07T10:10:21;17.83;;;9.17;;
6015;SDS011;3036;49.960;8.454;2023-12-07T10:12:52;19.70;;;9.93;;
6015;SDS011;3036;49.960;8.454;2023-12-07T10:15:20;21.60;;;10.03;;
6015;SDS011;3036;49.960;8.454;2023-12-07T10:17:48;17.97;;;10.33;;
6015;SDS011;3036;49.960;8.454;2023-12-07T10:20:15;19.97;;;10.53;;
6015;SDS011;3036;49.960;8.454;2023-12-07T10:22:42;18.93;;;10.23;;
6015;SDS011;3036;49.960;8.454;2023-12-07T10:25:10;19.13;;;9.97;;
6015;SDS011;3036;49.960;8.454;2023-12-07T10:27:38;21.20;;;10.80;;
6015;SDS011;3036;49.960;8.454;2023-12-07T10:30:10;21.50;;;9.80;;
6015;SDS011;3036;49.960;8.454;2023-12-07T10:32:37;21.17;;;11.00;;
6015;SDS011;3036;49.960;8.454;2023-12-07T10:35:06;22.63;;;10.93;;
6015;SDS011;3036;49.960;8.454;2023-12-07T10:37:33;21.17;;;10.70;;
6015;SDS011;3036;49.960;8.454;2023-12-07T10:40:00;15.93;;;9.63;;
6015;SDS011;3036;49.960;8.454;2023-12-07T10:42:27;31.30;;;10.47;;
6015;SDS011;3036;49.960;8.454;2023-12-07T10:44:57;22.17;;;10.07;;
6015;SDS011;3036;49.960;8.454;2023-12-07T10:47:26;19.53;;;9.83;;
6015;SDS011;3036;49.960;8.454;2023-12-07T10:49:54;18.00;;;9.77;;
6015;SDS011;3036;49.960;8.454;2023-12-07T10:52:23;22.63;;;10.00;;
6015;SDS011;3036;49.960;8.454;2023-12-07T10:54:58;18.53;;;10.40;;
6015;SDS011;3036;49.960;8.454;2023-12-07T10:57:27;25.07;;;10.83;;
6015;SDS011;3036;49.960;8.454;2023-12-07T10:59:56;25.00;;;11.03;;
6015;SDS011;3036;49.960;8.454;2023-12-07T11:02:25;20.87;;;9.90;;
6015;SDS011;3036;49.960;8.454;2023-12-07T11:04:53;22.57;;;10.40;;
6015;SDS011;3036;49.960;8.454;2023-12-07T11:07:21;29.33;;;10.83;;
6015;SDS011;3036;49.960;8.454;2023-12-07T11:09:51;22.07;;;10.23;;
6015;SDS011;3036;49.960;8.454;2023-12-07T11:12:22;20.83;;;10.57;;
6015;SDS011;3036;49.960;8.454;2023-12-07T11:14:55;20.20;;;10.33;;
6015;SDS011;3036;49.960;8.454;2023-12-07T11:17:22;16.53;;;9.23;;
6015;SDS011;3036;49.960;8.454;2023-12-07T11:19:50;18.00;;;10.80;;
6015;SDS011;3036;49.960;8.454;2023-12-07T11:22:17;23.40;;;10.90;;
6015;SDS011;3036;49.960;8.454;2023-12-07T11:24:51;19.53;;;10.73;;
6015;SDS011;3036;49.960;8.454;2023-12-07T11:27:18;24.47;;;11.20;;
6015;SDS011;3036;49.960;8.454;2023-12-07T11:29:45;21.37;;;10.67;;
6015;SDS011;3036;49.960;8.454;2023-12-07T11:32:13;21.77;;;10.60;;
6015;SDS011;3036;49.960;8.454;2023-12-07T11:34:40;27.70;;;11.63;;
6015;SDS011;3036;49.960;8.454;2023-12-07T11:37:09;22.90;;;10.93;;
6015;SDS011;3036;49.960;8.454;2023-12-07T11:39:36;19.80;;;10.37;;
6015;SDS011;3036;49.960;8.454;2023-12-07T11:42:06;32.03;;;11.87;;
6015;SDS011;3036;49.960;8.454;2023-12-07T11:44:34;25.30;;;11.30;;
6015;SDS011;3036;49.960;8.454;2023-12-07T11:47:01;27.20;;;12.13;;
6015;SDS011;3036;49.960;8.454;2023-12-07T11:49:28;23.20;;;12.63;;
6015;SDS011;3036;49.960;8.454;2023-12-07T11:51:56;28.87;;;11.77;;
6015;SDS011;3036;49.960;8.454;2023-12-07T11:54:25;30.70;;;11.73;;
6015;SDS011;3036;49.960;8.454;2023-12-07T11:56:52;25.27;;;10.73;;
6015;SDS011;3036;49.960;8.454;2023-12-07T11:59:19;26.67;;;10.57;;
6015;SDS011;3036;49.960;8.454;2023-12-07T12:01:47;20.37;;;10.13;;
6015;SDS011;3036;49.960;8.454;2023-12-07T12:04:14;24.57;;;12.37;;
6015;SDS011;3036;49.960;8.454;2023-12-07T12:06:42;23.97;;;11.37;;
6015;SDS011;3036;49.960;8.454;2023-12-07T12:09:09;25.87;;;11.33;;
6015;SDS011;3036;49.960;8.454;2023-12-07T12:11:37;21.97;;;10.23;;
6015;SDS011;3036;49.960;8.454;2023-12-07T12:14:04;29.73;;;11.63;;
6015;SDS011;3036;49.960;8.454;2023-12-07T12:16:31;26.93;;;11.80;;
6015;SDS011;3036;49.960;8.454;2023-12-07T12:18:58;24.80;;;11.23;;
6015;SDS011;3036;49.960;8.454;2023-12-07T12:21:25;25.00;;;10.70;;
6015;SDS011;3036;49.960;8.454;2023-12-07T12:23:52;26.37;;;12.00;;
6015;SDS011;3036;49.960;8.454;2023-12-07T12:26:19;21.77;;;10.30;;
6015;SDS011;3036;49.960;8.454;2023-12-07T12:28:48;29.87;;;11.77;;
6015;SDS011;3036;49.960;8.454;2023-12-07T12:31:17;25.50;;;11.03;;
6015;SDS011;3036;49.960;8.454;2023-12-07T12:33:45;34.37;;;11.73;;
6015;SDS011;3036;49.960;8.454;2023-12-07T12:36:12;27.00;;;11.13;;
6015;SDS011;3036;49.960;8.454;2023-12-07T12:38:39;26.73;;;10.53;;
6015;SDS011;3036;49.960;8.454;2023-12-07T12:41:06;26.27;;;10.67;;
6015;SDS011;3036;49.960;8.454;2023-12-07T12:43:33;20.77;;;9.23;;
6015;SDS011;3036;49.960;8.454;2023-12-07T12:46:02;29.20;;;11.20;;
6015;SDS011;3036;49.960;8.454;2023-12-07T12:48:30;27.93;;;10.53;;
6015;SDS011;3036;49.960;8.454;2023-12-07T12:50:57;36.07;;;11.97;;
6015;SDS011;3036;49.960;8.454;2023-12-07T12:53:24;28.40;;;10.90;;
6015;SDS011;3036;49.960;8.454;2023-12-07T12:55:51;26.83;;;12.10;;
6015;SDS011;3036;49.960;8.454;2023-12-07T12:58:18;28.63;;;11.30;;
6015;SDS011;3036;49.960;8.454;2023-12-07T13:00:47;28.97;;;10.70;;
6015;SDS011;3036;49.960;8.454;2023-12-07T13:03:15;30.53;;;11.10;;
6015;SDS011;3036;49.960;8.454;2023-12-07T13:05:43;31.30;;;12.07;;
6015;SDS011;3036;49.960;8.454;2023-12-07T13:08:10;26.63;;;9.90;;
6015;SDS011;3036;49.960;8.454;2023-12-07T13:10:37;35.63;;;12.00;;
6015;SDS011;3036;49.960;8.454;2023-12-07T13:13:04;29.97;;;11.67;;
6015;SDS011;3036;49.960;8.454;2023-12-07T13:15:32;34.50;;;12.27;;
6015;SDS011;3036;49.960;8.454;2023-12-07T13:17:59;32.40;;;10.53;;
6015;SDS011;3036;49.960;8.454;2023-12-07T13:20:27;30.07;;;11.37;;
6015;SDS011;3036;49.960;8.454;2023-12-07T13:22:54;31.53;;;11.63;;
6015;SDS011;3036;49.960;8.454;2023-12-07T13:25:21;29.90;;;11.20;;
6015;SDS011;3036;49.960;8.454;2023-12-07T13:27:48;26.27;;;9.43;;
6015;SDS011;3036;49.960;8.454;2023-12-07T13:30:15;29.97;;;11.27;;
6015;SDS011;3036;49.960;8.454;2023-12-07T13:32:42;33.87;;;11.17;;
6015;SDS011;3036;49.960;8.454;2023-12-07T13:35:10;28.70;;;11.30;;
6015;SDS011;3036;49.960;8.454;2023-12-07T13:37:39;26.23;;;9.90;;
6015;SDS011;3036;49.960;8.454;2023-12-07T13:40:06;35.73;;;11.47;;
6015;SDS011;3036;49.960;8.454;2023-12-07T13:42:35;30.83;;;11.70;;
6015;SDS011;3036;49.960;8.454;2023-12-07T13:45:03;35.57;;;13.03;;
6015;SDS011;3036;49.960;8.454;2023-12-07T13:47:30;31.57;;;12.47;;
6015;SDS011;3036;49.960;8.454;2023-12-07T13:49:57;33.30;;;13.60;;
6015;SDS011;3036;49.960;8.454;2023-12-07T13:52:24;34.53;;;12.60;;
6015;SDS011;3036;49.960;8.454;2023-12-07T13:54:55;30.70;;;12.20;;
6015;SDS011;3036;49.960;8.454;2023-12-07T13:57:22;30.80;;;11.90;;
6015;SDS011;3036;49.960;8.454;2023-12-07T13:59:50;31.40;;;11.50;;
6015;SDS011;3036;49.960;8.454;2023-12-07T14:02:17;41.13;;;13.70;;
6015;SDS011;3036;49.960;8.454;2023-12-07T14:04:45;29.47;;;12.00;;
6015;SDS011;3036;49.960;8.454;2023-12-07T14:07:14;34.17;;;12.17;;
6015;SDS011;3036;49.960;8.454;2023-12-07T14:09:42;30.70;;;12.93;;
6015;SDS011;3036;49.960;8.454;2023-12-07T14:12:11;32.93;;;12.67;;
6015;SDS011;3036;49.960;8.454;2023-12-07T14:14:39;34.50;;;13.43;;
6015;SDS011;3036;49.960;8.454;2023-12-07T14:17:07;34.40;;;12.67;;
6015;SDS011;3036;49.960;8.454;2023-12-07T14:19:34;32.23;;;11.73;;
6015;SDS011;3036;49.960;8.454;2023-12-07T14:22:01;25.20;;;11.13;;
6015;SDS011;3036;49.960;8.454;2023-12-07T14:24:28;31.60;;;11.93;;
6015;SDS011;3036;49.960;8.454;2023-12-07T14:26:56;30.70;;;11.20;;
6015;SDS011;3036;49.960;8.454;2023-12-07T14:29:25;33.27;;;13.63;;
6015;SDS011;3036;49.960;8.454;2023-12-07T14:31:52;36.07;;;12.53;;
6015;SDS011;3036;49.960;8.454;2023-12-07T14:34:19;31.37;;;12.33;;
6015;SDS011;3036;49.960;8.454;2023-12-07T14:36:46;32.63;;;12.50;;
6015;SDS011;3036;49.960;8.454;2023-12-07T14:39:13;29.60;;;11.37;;
6015;SDS011;3036;49.960;8.454;2023-12-07T14:41:42;30.70;;;12.10;;
6015;SDS011;3036;49.960;8.454;2023-12-07T14:44:09;26.77;;;10.93;;
6015;SDS011;3036;49.960;8.454;2023-12-07T14:46:38;27.33;;;11.73;;
6015;SDS011;3036;49.960;8.454;2023-12-07T14:49:05;33.10;;;11.97;;
6015;SDS011;3036;49.960;8.454;2023-12-07T14:51:32;26.43;;;11.67;;
6015;SDS011;3036;49.960;8.454;2023-12-07T14:53:59;27.70;;;11.40;;
6015;SDS011;3036;49.960;8.454;2023-12-07T14:56:27;27.27;;;11.27;;
6015;SDS011;3036;49.960;8.454;2023-12-07T14:58:54;25.63;;;11.33;;
6015;SDS011;3036;49.960;8.454;2023-12-07T15:01:23;23.63;;;11.23;;
6015;SDS011;3036;49.960;8.454;2023-12-07T15:03:52;27.83;;;11.40;;